KRYY/RYY METAR and TAF weather

Enter ICAO airport designator
Station Type Date Time Source
KRYY METAR 2019/04/24 15:48 UTC NOAA

KRYY 241548Z 28008KT 10SM CLR 24/13 A3006 RMK AO2 SLP899 T02390128


Station Type Date Time Source
KRYY Decoded METAR 2019/04/24 15:48 UTC NOAA

Marietta, Cobb County-McCollum Field Airport, GA, United States (KRYY) 34-00-47N 084-35-55W
Apr 24, 2019 - 11:48 AM EDT / 2019.04.24 1548 UTC
Wind: from the W (280 degrees) at 9 MPH (8 KT):0
Visibility: 10 mile(s):0
Sky conditions: clear
Temperature: 75.0 F (23.9 C)
Dew Point: 55.0 F (12.8 C)
Relative Humidity: 49%
Pressure (altimeter): 30.06 in. Hg (1017 hPa)
ob: KRYY 241548Z 28008KT 10SM CLR 24/13 A3006 RMK AO2 SLP899 T02390128
cycle: 16

Station Type Date Time Source
KRYY TAF 2019/04/24 12:22 UTC NOAA

TAF KRYY 241120Z 2412/2512 23002KT P6SM FEW150 BKN200
FM241400 27006KT P6SM BKN150
FM250000 23002KT P6SM SCT200

Example: see airport list